Westview, Kentucky
Current Conditions -  °F | °C
As of 4:58 AM on Wednesday 26 Nov 2014 (Local Time) from KFTK Reporting Station
Haze Haze  
Wind Chill: 23°   Ceiling: Unl
Heat Index: 23°   Visibility: 6mi
Dew Point: 21°   Wind: 2mph
Humidity: 94%   Direction: 270°W
Pressure: 30.09"   Gusts: NA
Location:  37.7°N, 86.41°W
Report Text: KFTK 261058Z AUTO 27002KT 6SM R18/5000FT BR CLR M05/M06 A3009 RMK AO2 SLP200 T10521060
Loading
Personal Weather Stations






























Interactive Weather Map New forecast layout! Learn more

10-Day Weather Forecast

Advertisements
Track Severe Weather on mobile